Time;durP1;ratioP1;P1;durP2;ratioP2;P2;SDS_P1;SDS_P2;PMS_P1;PMS_P2;Temp;Humidity;BMP_temperature;BMP_pressure;BME280_temperature;BME280_humidity;BME280_pressure;Samples;Min_cycle;Max_cycle;Signal;HPM_P1;HPM_P2
2024/01/14 00:01:12;;;;;;;;;;;;;;;-3.88;100.00;95627.50;10429091;28;3026;-65
2024/01/14 00:06:14;;;;;;;;;;;;;;;-3.94;100.00;95622.16;10437388;28;3038;-66
2024/01/14 00:11:17;;;;;;;;;;;;;;;-3.78;100.00;95621.09;10439649;28;3041;-65
2024/01/14 00:16:20;;;;;;;;;;;;;;;-4.02;100.00;95622.28;10446018;28;2822;-64
2024/01/14 00:21:23;;;;;;;;;;;;;;;-3.98;100.00;95607.78;10447595;28;2886;-65
2024/01/14 00:26:27;;;;;;;;;;;;;;;-4.00;100.00;95594.84;10436807;28;2993;-65
2024/01/14 00:31:30;;;;;;;;;;;;;;;-3.90;100.00;95570.88;10436744;28;3014;-66
2024/01/14 00:36:32;;;;;;;;;;;;;;;-3.86;100.00;95565.06;10436663;28;3040;-71
2024/01/14 00:41:35;;;;;;;;;;;;;;;-3.85;100.00;95550.94;10436983;28;2862;-65
2024/01/14 00:46:38;;;;;;;;;;;;;;;-3.91;100.00;95541.19;10421764;28;2998;-69
2024/01/14 00:51:40;;;;;;;;;;;;;;;-4.00;100.00;95528.41;10423511;28;2976;-68
2024/01/14 00:56:43;;;;;;;;;;;;;;;-4.12;100.00;95531.53;10440432;28;3128;-69
2024/01/14 01:01:45;;;;;;;;;;;;;;;-4.06;100.00;95519.47;10441490;28;2942;-65
2024/01/14 01:06:48;;;;;;;;;;;;;;;-4.08;100.00;95513.56;10445246;28;3047;-66
2024/01/14 01:11:53;;;;;;;;;;;;;;;-4.14;100.00;95517.75;10440753;28;3003;-65
2024/01/14 01:16:56;;;;;;;;;;;;;;;-4.16;100.00;95519.75;10448745;28;3028;-65
2024/01/14 01:21:58;;;;;;;;;;;;;;;-4.10;100.00;95516.38;10445333;28;2978;-65
2024/01/14 01:27:01;;;;;;;;;;;;;;;-4.00;100.00;95518.72;10441590;28;3245;-65
2024/01/14 01:32:04;;;;;;;;;;;;;;;-4.12;100.00;95507.91;10434210;28;2932;-66
2024/01/14 01:37:10;;;;;;;;;;;;;;;-4.17;100.00;95506.84;10432664;28;3124;-65
2024/01/14 01:42:12;;;;;;;;;;;;;;;-4.29;100.00;95501.28;10446375;28;3265;-73
2024/01/14 01:47:16;;;;;;;;;;;;;;;-4.26;100.00;95486.94;10442579;28;3068;-65
2024/01/14 01:52:19;;;;;;;;;;;;;;;-4.21;100.00;95500.31;10437251;28;2917;-65
2024/01/14 01:57:21;;;;;;;;;;;;;;;-4.17;100.00;95494.53;10435681;28;3061;-66
2024/01/14 02:02:23;;;;;;;;;;;;;;;-4.30;100.00;95477.84;10438598;28;3005;-68
2024/01/14 02:07:26;;;;;;;;;;;;;;;-4.52;100.00;95462.09;10440802;28;2862;-65
2024/01/14 02:12:29;;;;;;;;;;;;;;;-4.53;100.00;95449.19;10443381;28;2965;-68
2024/01/14 02:17:31;;;;;;;;;;;;;;;-4.55;100.00;95444.13;10436803;28;2989;-64
2024/01/14 02:22:34;;;;;;;;;;;;;;;-4.59;100.00;95442.88;10441514;28;2904;-66
2024/01/14 02:27:37;;;;;;;;;;;;;;;-4.57;100.00;95443.50;10437216;28;3084;-65
2024/01/14 02:32:39;;;;;;;;;;;;;;;-4.63;100.00;95439.00;10419928;28;2981;-65
2024/01/14 02:37:43;;;;;;;;;;;;;;;-4.61;100.00;95431.75;10432561;28;3061;-65
2024/01/14 02:42:46;;;;;;;;;;;;;;;-4.59;100.00;95423.69;10426309;28;3013;-66
2024/01/14 02:47:48;;;;;;;;;;;;;;;-4.56;100.00;95413.66;10429861;28;3199;-65
2024/01/14 02:52:52;;;;;;;;;;;;;;;-4.55;100.00;95417.88;10435952;28;2852;-66
2024/01/14 02:57:55;;;;;;;;;;;;;;;-4.47;100.00;95427.44;10433484;28;2993;-65
2024/01/14 03:02:57;;;;;;;;;;;;;;;-4.47;100.00;95407.25;10434311;28;3017;-63
2024/01/14 03:08:00;;;;;;;;;;;;;;;-4.54;100.00;95401.16;10430810;28;2946;-66
2024/01/14 03:13:03;;;;;;;;;;;;;;;-4.43;100.00;95395.41;10443254;28;2870;-64
2024/01/14 03:18:05;;;;;;;;;;;;;;;-4.35;100.00;95381.31;10441035;28;3187;-63
2024/01/14 03:23:08;;;;;;;;;;;;;;;-4.32;100.00;95378.34;10436174;28;3033;-64
2024/01/14 03:28:10;;;;;;;;;;;;;;;-4.37;100.00;95373.66;10442976;28;2886;-65
2024/01/14 03:33:13;;;;;;;;;;;;;;;-4.33;100.00;95368.81;10441695;28;2954;-70
2024/01/14 03:38:15;;;;;;;;;;;;;;;-4.49;100.00;95362.03;10433430;28;2973;-64
2024/01/14 03:43:18;;;;;;;;;;;;;;;-4.52;100.00;95365.03;10440721;28;3234;-65
2024/01/14 03:48:21;;;;;;;;;;;;;;;-4.54;100.00;95371.47;10441938;28;3096;-64
2024/01/14 03:53:23;;;;;;;;;;;;;;;-4.64;100.00;95369.19;10444860;28;2857;-63
2024/01/14 03:58:26;;;;;;;;;;;;;;;-4.61;100.00;95368.81;10439131;28;2941;-63
2024/01/14 04:03:29;;;;;;;;;;;;;;;-4.56;100.00;95370.88;10444115;28;3197;-64
2024/01/14 04:08:32;;;;;;;;;;;;;;;-4.55;100.00;95357.56;10441313;28;3104;-64
2024/01/14 04:13:34;;;;;;;;;;;;;;;-4.52;100.00;95351.91;10443719;28;3131;-64
2024/01/14 04:18:37;;;;;;;;;;;;;;;-4.49;100.00;95356.81;10446928;28;2838;-66
2024/01/14 04:23:40;;;;;;;;;;;;;;;-4.57;100.00;95359.56;10439727;28;3002;-65
2024/01/14 04:28:42;;;;;;;;;;;;;;;-4.52;100.00;95351.91;10443726;28;3044;-65
2024/01/14 04:33:44;;;;;;;;;;;;;;;-4.56;100.00;95347.25;10442564;28;3029;-68
2024/01/14 04:38:47;;;;;;;;;;;;;;;-4.49;100.00;95338.44;10438343;28;7246;-66
2024/01/14 04:43:50;;;;;;;;;;;;;;;-4.49;100.00;95348.94;10434594;28;3195;-69
2024/01/14 04:48:52;;;;;;;;;;;;;;;-4.53;100.00;95355.56;10436544;28;2994;-71
2024/01/14 04:53:55;;;;;;;;;;;;;;;-4.44;100.00;95364.91;10441841;28;3248;-65
2024/01/14 04:58:57;;;;;;;;;;;;;;;-4.38;100.00;95360.72;10432229;28;3075;-62
2024/01/14 05:04:00;;;;;;;;;;;;;;;-4.45;100.00;95368.53;10435032;28;3074;-64
2024/01/14 05:09:03;;;;;;;;;;;;;;;-4.41;100.00;95363.72;10431712;28;3145;-66
2024/01/14 05:14:06;;;;;;;;;;;;;;;-4.48;100.00;95371.53;10434346;28;3117;-64
2024/01/14 05:19:09;;;;;;;;;;;;;;;-4.53;100.00;95365.22;10438179;28;3253;-64
2024/01/14 05:24:12;;;;;;;;;;;;;;;-4.50;100.00;95360.44;10437704;28;3212;-63
2024/01/14 05:29:14;;;;;;;;;;;;;;;-4.50;100.00;95364.88;10435692;28;3116;-65
2024/01/14 05:34:17;;;;;;;;;;;;;;;-4.60;100.00;95357.31;10439538;28;3108;-65
2024/01/14 05:39:20;;;;;;;;;;;;;;;-4.66;100.00;95366.75;10432952;28;3158;-64
2024/01/14 05:44:22;;;;;;;;;;;;;;;-4.72;100.00;95372.75;10428774;28;3043;-64
2024/01/14 05:49:24;;;;;;;;;;;;;;;-4.73;100.00;95380.81;10429540;28;3135;-64
2024/01/14 05:54:27;;;;;;;;;;;;;;;-4.65;100.00;95378.03;10436389;28;3204;-69
2024/01/14 05:59:30;;;;;;;;;;;;;;;-4.73;100.00;95375.56;10427947;28;3138;-65
2024/01/14 06:04:33;;;;;;;;;;;;;;;-4.87;100.00;95374.63;10409891;28;3175;-63
2024/01/14 06:09:35;;;;;;;;;;;;;;;-4.96;100.00;95375.78;10432605;28;3096;-63
2024/01/14 06:14:38;;;;;;;;;;;;;;;-4.99;100.00;95370.88;10434955;28;2926;-67
2024/01/14 06:19:40;;;;;;;;;;;;;;;-5.05;100.00;95382.94;10432558;28;3037;-63
2024/01/14 06:24:43;;;;;;;;;;;;;;;-5.20;100.00;95393.47;10437004;28;3018;-64
2024/01/14 06:29:45;;;;;;;;;;;;;;;-5.07;100.00;95379.69;10438915;28;2943;-63
2024/01/14 06:34:48;;;;;;;;;;;;;;;-5.08;100.00;95387.75;10430750;28;3096;-67
2024/01/14 06:39:51;;;;;;;;;;;;;;;-5.31;100.00;95387.88;10431019;28;3033;-63
2024/01/14 06:44:53;;;;;;;;;;;;;;;-5.38;100.00;95387.00;10435128;28;3063;-63
2024/01/14 06:49:56;;;;;;;;;;;;;;;-5.46;100.00;95396.59;10432299;28;2921;-64
2024/01/14 06:55:12;;;;;;;;;;;;;;;-5.73;100.00;95394.63;10434446;28;2873;-65
2024/01/14 07:00:14;;;;;;;;;;;;;;;-5.77;100.00;95388.16;10431860;28;2887;-65
2024/01/14 07:05:17;;;;;;;;;;;;;;;-5.55;100.00;95381.16;10432000;28;3132;-64
2024/01/14 07:10:19;;;;;;;;;;;;;;;-5.49;100.00;95385.66;10441298;28;3281;-69
2024/01/14 07:15:22;;;;;;;;;;;;;;;-5.31;100.00;95378.22;10435157;28;3131;-65
2024/01/14 07:20:25;;;;;;;;;;;;;;;-5.04;100.00;95381.13;10439167;28;2966;-66
2024/01/14 07:25:28;;;;;;;;;;;;;;;-4.96;100.00;95370.53;10440156;28;2962;-65
2024/01/14 07:30:30;;;;;;;;;;;;;;;-4.88;100.00;95367.78;10435723;28;3025;-64
2024/01/14 07:35:33;;;;;;;;;;;;;;;-4.80;100.00;95361.59;10432193;28;3069;-65
2024/01/14 07:40:36;;;;;;;;;;;;;;;-4.92;100.00;95348.16;10439380;28;2953;-64
2024/01/14 07:45:38;;;;;;;;;;;;;;;-4.74;100.00;95347.72;10433782;28;2859;-64
2024/01/14 07:50:40;;;;;;;;;;;;;;;-4.65;100.00;95367.56;10439685;28;2838;-62
2024/01/14 07:55:43;;;;;;;;;;;;;;;-4.71;100.00;95352.56;10434623;28;2960;-65
2024/01/14 08:00:45;;;;;;;;;;;;;;;-4.72;100.00;95351.75;10437041;28;3161;-64
2024/01/14 08:06:02;;;;;;;;;;;;;;;-4.74;100.00;95348.53;10427422;28;2997;-64
2024/01/14 08:11:05;;;;;;;;;;;;;;;-4.57;100.00;95343.84;10432643;28;3064;-63
2024/01/14 08:16:07;;;;;;;;;;;;;;;-4.51;100.00;95335.19;10434389;28;2934;-65
2024/01/14 08:21:10;;;;;;;;;;;;;;;-4.42;100.00;95341.09;10433128;28;3045;-65
2024/01/14 08:26:13;;;;;;;;;;;;;;;-4.13;100.00;95340.91;10435944;28;3089;-65
2024/01/14 08:31:16;;;;;;;;;;;;;;;-3.80;100.00;95335.03;10443046;28;2830;-67
2024/01/14 08:36:19;;;;;;;;;;;;;;;-3.38;100.00;95339.19;10445957;28;2890;-67
2024/01/14 08:41:24;;;;;;;;;;;;;;;-2.97;100.00;95325.16;10443411;28;3044;-67
2024/01/14 08:46:27;;;;;;;;;;;;;;;-2.52;100.00;95320.13;10440307;28;3024;-66
2024/01/14 08:51:29;;;;;;;;;;;;;;;-2.85;100.00;95310.41;10446547;28;3056;-65
2024/01/14 08:56:32;;;;;;;;;;;;;;;-2.69;100.00;95296.03;10448179;28;2990;-66
2024/01/14 09:01:34;;;;;;;;;;;;;;;-3.00;100.00;95301.88;10440215;28;3072;-66
2024/01/14 09:06:37;;;;;;;;;;;;;;;-3.49;100.00;95294.31;10447118;28;3012;-67
2024/01/14 09:11:39;;;;;;;;;;;;;;;-3.73;100.00;95303.53;10446039;28;2863;-66
2024/01/14 09:16:42;;;;;;;;;;;;;;;-3.44;100.00;95299.78;10420765;28;2895;-65
2024/01/14 09:21:44;;;;;;;;;;;;;;;-3.11;100.00;95298.03;10438056;28;2904;-65
2024/01/14 09:26:47;;;;;;;;;;;;;;;-2.86;100.00;95287.75;10445624;28;3096;-65
2024/01/14 09:31:50;;;;;;;;;;;;;;;-2.49;100.00;95274.97;10438452;28;2937;-67
2024/01/14 09:36:52;;;;;;;;;;;;;;;-2.52;100.00;95268.28;10441533;28;2975;-68
2024/01/14 09:41:55;;;;;;;;;;;;;;;-2.42;100.00;95278.38;10443865;28;3177;-65
2024/01/14 09:46:58;;;;;;;;;;;;;;;-2.58;100.00;95282.28;10439370;28;2802;-66
2024/01/14 09:52:00;;;;;;;;;;;;;;;-2.47;100.00;95286.13;10445421;28;2906;-66
2024/01/14 09:57:03;;;;;;;;;;;;;;;-2.40;100.00;95286.91;10434206;28;2970;-70
2024/01/14 10:02:06;;;;;;;;;;;;;;;-2.20;100.00;95279.78;10442184;28;2910;-66
2024/01/14 10:07:08;;;;;;;;;;;;;;;-2.29;100.00;95269.66;10437238;28;2949;-64
2024/01/14 10:12:11;;;;;;;;;;;;;;;-2.25;100.00;95249.81;10440078;28;3091;-66
2024/01/14 10:17:16;;;;;;;;;;;;;;;-1.94;100.00;95246.47;10440407;28;2962;-66
2024/01/14 10:22:18;;;;;;;;;;;;;;;-1.99;100.00;95227.84;10439585;28;3259;-65
2024/01/14 10:27:21;;;;;;;;;;;;;;;-2.12;100.00;95206.84;10417492;28;2952;-66
2024/01/14 10:32:38;;;;;;;;;;;;;;;-2.24;100.00;95204.84;10431472;28;3030;-66
2024/01/14 10:38:01;;;;;;;;;;;;;;;-2.35;100.00;95197.59;10439417;28;2877;-63
2024/01/14 10:43:04;;;;;;;;;;;;;;;-2.21;100.00;95188.66;10440438;28;3000;-64
2024/01/14 10:48:07;;;;;;;;;;;;;;;-2.18;100.00;95172.41;10440042;28;2875;-65
2024/01/14 10:53:09;;;;;;;;;;;;;;;-2.12;100.00;95170.78;10432707;28;2881;-66
2024/01/14 10:58:12;;;;;;;;;;;;;;;-1.99;100.00;95159.38;10437670;28;2973;-66
2024/01/14 11:03:16;;;;;;;;;;;;;;;-2.06;100.00;95145.44;10432730;28;2856;-69
2024/01/14 11:08:19;;;;;;;;;;;;;;;-2.07;100.00;95146.47;10437417;28;2838;-64
2024/01/14 11:13:22;;;;;;;;;;;;;;;-2.10;100.00;95141.59;10433587;28;2849;-66
2024/01/14 11:18:24;;;;;;;;;;;;;;;-2.21;100.00;95127.28;10438721;28;2899;-65
2024/01/14 11:23:27;;;;;;;;;;;;;;;-2.17;100.00;95116.09;10430010;28;2956;-65
2024/01/14 11:28:30;;;;;;;;;;;;;;;-2.09;100.00;95103.72;10428102;28;2877;-65
2024/01/14 11:33:38;;;;;;;;;;;;;;;-1.93;100.00;95098.75;10440820;28;2821;-65
2024/01/14 11:38:41;;;;;;;;;;;;;;;-1.92;100.00;95086.38;10434804;28;2898;-67
2024/01/14 11:43:44;;;;;;;;;;;;;;;-1.79;100.00;95075.75;10440012;28;2845;-69
2024/01/14 11:48:46;;;;;;;;;;;;;;;-1.59;100.00;95062.47;10435758;28;2886;-67
2024/01/14 11:53:49;;;;;;;;;;;;;;;-1.59;100.00;95048.44;10432819;28;2958;-65
2024/01/14 11:58:55;;;;;;;;;;;;;;;-1.52;100.00;95047.41;10412360;28;2848;-64
2024/01/14 12:03:58;;;;;;;;;;;;;;;-1.33;100.00;95034.25;10440482;28;2814;-67
2024/01/14 12:09:01;;;;;;;;;;;;;;;-1.05;100.00;95025.84;10448124;28;3020;-73
2024/01/14 12:14:04;;;;;;;;;;;;;;;-1.02;100.00;95014.84;10442861;28;2971;-69
2024/01/14 12:19:06;;;;;;;;;;;;;;;-1.03;100.00;95002.69;10446489;28;2885;-72
2024/01/14 12:24:09;;;;;;;;;;;;;;;-0.92;100.00;94991.41;10420494;28;2833;-65
2024/01/14 12:29:12;;;;;;;;;;;;;;;-0.90;100.00;94978.78;10440069;28;2790;-66
2024/01/14 12:34:14;;;;;;;;;;;;;;;-1.04;100.00;94969.44;10435334;28;2963;-67
2024/01/14 12:39:18;;;;;;;;;;;;;;;-1.09;100.00;94968.25;10446850;28;2821;-69
2024/01/14 12:44:24;;;;;;;;;;;;;;;-1.09;100.00;94949.78;10436188;28;2811;-68
2024/01/14 12:49:28;;;;;;;;;;;;;;;-0.84;100.00;94936.47;10446143;28;2893;-66
2024/01/14 12:54:31;;;;;;;;;;;;;;;-0.45;100.00;94920.31;10450810;28;2404;-67
2024/01/14 12:59:34;;;;;;;;;;;;;;;-0.05;100.00;94920.53;10451417;28;1498;-71
2024/01/14 13:04:37;;;;;;;;;;;;;;;0.14;100.00;94913.31;10455679;28;1716;-70
2024/01/14 13:09:40;;;;;;;;;;;;;;;0.43;100.00;94895.72;10452638;28;2230;-74
2024/01/14 13:14:43;;;;;;;;;;;;;;;0.35;100.00;94883.66;10436712;28;1984;-72
2024/01/14 13:19:46;;;;;;;;;;;;;;;0.14;100.00;94884.25;10454407;28;2945;-70
2024/01/14 13:24:48;;;;;;;;;;;;;;;-0.12;100.00;94881.03;10450313;28;1543;-70
2024/01/14 13:29:52;;;;;;;;;;;;;;;-0.23;100.00;94876.53;10452589;28;1482;-77
2024/01/14 13:34:55;;;;;;;;;;;;;;;-0.36;100.00;94874.09;10448063;28;1910;-78
2024/01/14 13:39:57;;;;;;;;;;;;;;;-0.49;100.00;94869.81;10450351;28;1443;-71
2024/01/14 13:45:00;;;;;;;;;;;;;;;-0.51;100.00;94871.06;10448021;28;2293;-73
2024/01/14 13:50:05;;;;;;;;;;;;;;;-0.66;100.00;94868.84;10453815;28;1766;-65
2024/01/14 13:55:08;;;;;;;;;;;;;;;-0.73;100.00;94858.41;10452355;28;1951;-65
2024/01/14 14:00:11;;;;;;;;;;;;;;;-0.84;100.00;94848.59;10452539;28;2836;-65
2024/01/14 14:05:14;;;;;;;;;;;;;;;-0.91;100.00;94850.53;10452584;28;1874;-66
2024/01/14 14:10:18;;;;;;;;;;;;;;;-0.92;100.00;94848.94;10448781;28;1747;-66
2024/01/14 14:15:20;;;;;;;;;;;;;;;-1.03;100.00;94839.16;10453037;28;1989;-66
2024/01/14 14:20:23;;;;;;;;;;;;;;;-1.18;100.00;94840.34;10446256;28;1486;-66
2024/01/14 14:25:26;;;;;;;;;;;;;;;-1.30;100.00;94830.78;10453989;28;1467;-68
2024/01/14 14:30:28;;;;;;;;;;;;;;;-1.34;100.00;94835.69;10451077;28;1481;-64
2024/01/14 14:35:32;;;;;;;;;;;;;;;-1.37;100.00;94820.31;10454174;28;2043;-65
2024/01/14 14:40:35;;;;;;;;;;;;;;;-1.46;100.00;94811.13;10450794;28;2853;-64
2024/01/14 14:45:37;;;;;;;;;;;;;;;-1.54;100.00;94800.88;10445832;28;1502;-68
2024/01/14 14:50:40;;;;;;;;;;;;;;;-1.65;100.00;94797.97;10435095;28;1956;-66
2024/01/14 14:55:42;;;;;;;;;;;;;;;-1.80;100.00;94792.25;10448648;28;1906;-65
2024/01/14 15:00:45;;;;;;;;;;;;;;;-1.89;100.00;94798.84;10450331;28;1545;-64
2024/01/14 15:05:47;;;;;;;;;;;;;;;-1.99;100.00;94788.00;10446234;28;1696;-65
2024/01/14 15:10:50;;;;;;;;;;;;;;;-2.08;100.00;94778.81;10449042;28;1799;-65
2024/01/14 15:15:53;;;;;;;;;;;;;;;-2.19;100.00;94767.97;10446082;28;1921;-66
2024/01/14 15:20:56;;;;;;;;;;;;;;;-2.20;100.00;94766.38;10449374;28;1451;-66
2024/01/14 15:25:58;;;;;;;;;;;;;;;-2.32;100.00;94754.16;10445811;28;2787;-66
2024/01/14 15:31:05;;;;;;;;;;;;;;;-2.49;100.00;94751.28;10445801;28;1763;-65
2024/01/14 15:36:10;;;;;;;;;;;;;;;-2.55;100.00;94733.72;10455476;28;1458;-66
2024/01/14 15:41:14;;;;;;;;;;;;;;;-2.71;100.00;94737.72;10456476;28;1796;-65
2024/01/14 15:46:17;;;;;;;;;;;;;;;-2.91;100.00;94729.22;10450710;28;2802;-66
2024/01/14 15:51:20;;;;;;;;;;;;;;;-3.02;100.00;94728.88;10444051;28;3065;-65
2024/01/14 15:56:23;;;;;;;;;;;;;;;-3.11;100.00;94729.38;10445086;28;3113;-66
2024/01/14 16:01:25;;;;;;;;;;;;;;;-3.23;100.00;94720.56;10419364;28;2925;-65
2024/01/14 16:06:28;;;;;;;;;;;;;;;-3.40;100.00;94715.81;10437022;28;2988;-66
2024/01/14 16:11:30;;;;;;;;;;;;;;;-3.43;100.00;94705.75;10434062;28;3162;-64
2024/01/14 16:16:33;;;;;;;;;;;;;;;-3.53;100.00;94706.22;10434839;28;3414;-65
2024/01/14 16:21:35;;;;;;;;;;;;;;;-3.44;100.00;94700.69;10436007;28;2989;-65
2024/01/14 16:26:38;;;;;;;;;;;;;;;-3.44;100.00;94693.59;10431606;28;3706;-65
2024/01/14 16:31:41;;;;;;;;;;;;;;;-3.50;100.00;94693.66;10437204;28;3319;-65
2024/01/14 16:36:44;;;;;;;;;;;;;;;-3.61;100.00;94688.06;10444525;28;3268;-64
2024/01/14 16:41:47;;;;;;;;;;;;;;;-3.58;100.00;94681.59;10440006;28;3026;-64
2024/01/14 16:46:50;;;;;;;;;;;;;;;-3.54;100.00;94677.53;10439252;28;3140;-66
2024/01/14 16:51:52;;;;;;;;;;;;;;;-3.45;100.00;94676.22;10440538;28;2913;-64
2024/01/14 16:56:56;;;;;;;;;;;;;;;-3.52;100.00;94675.47;10444101;28;2978;-66
2024/01/14 17:01:59;;;;;;;;;;;;;;;-3.51;100.00;94671.84;10445352;28;3073;-67
2024/01/14 17:07:01;;;;;;;;;;;;;;;-3.53;100.00;94666.00;10444251;28;2914;-66
2024/01/14 17:12:05;;;;;;;;;;;;;;;-3.54;100.00;94672.28;10447140;28;2742;-65
2024/01/14 17:17:10;;;;;;;;;;;;;;;-3.66;100.00;94663.47;10447889;28;2243;-67
2024/01/14 17:22:14;;;;;;;;;;;;;;;-3.75;100.00;94654.22;10457786;28;1581;-67
2024/01/14 17:27:17;;;;;;;;;;;;;;;-3.85;100.00;94652.88;10456767;28;2133;-66
2024/01/14 17:32:19;;;;;;;;;;;;;;;-3.86;100.00;94643.38;10455849;28;1975;-67
2024/01/14 17:37:22;;;;;;;;;;;;;;;-3.92;100.00;94640.81;10456153;28;2597;-68
2024/01/14 17:42:25;;;;;;;;;;;;;;;-4.02;100.00;94633.38;10451284;28;2545;-69
2024/01/14 17:47:29;;;;;;;;;;;;;;;-4.12;100.00;94636.47;10453311;28;1501;-65
2024/01/14 17:52:32;;;;;;;;;;;;;;;-4.21;100.00;94640.34;10432073;28;2449;-65
2024/01/14 17:57:34;;;;;;;;;;;;;;;-4.30;100.00;94631.13;10452960;28;1612;-63
2024/01/14 18:02:37;;;;;;;;;;;;;;;-4.31;100.00;94626.09;10449350;28;1490;-64
2024/01/14 18:07:40;;;;;;;;;;;;;;;-4.32;100.00;94627.91;10451277;28;1533;-68
2024/01/14 18:12:43;;;;;;;;;;;;;;;-4.35;100.00;94617.81;10450436;28;1985;-66
2024/01/14 18:17:50;;;;;;;;;;;;;;;-4.32;100.00;94611.38;10452053;28;1538;-65
2024/01/14 18:22:52;;;;;;;;;;;;;;;-4.32;100.00;94611.38;10450548;28;2821;-65
2024/01/14 18:28:10;;;;;;;;;;;;;;;-4.40;100.00;94607.16;10447303;28;1525;-64
2024/01/14 18:33:13;;;;;;;;;;;;;;;-4.38;100.00;94605.94;10449924;28;1918;-65
2024/01/14 18:38:16;;;;;;;;;;;;;;;-4.41;100.00;94582.72;10449101;28;2621;-73
2024/01/14 18:43:19;;;;;;;;;;;;;;;-4.29;100.00;94580.25;10448606;28;1770;-65
2024/01/14 18:48:22;;;;;;;;;;;;;;;-4.25;100.00;94578.03;10443817;28;1504;-67
2024/01/14 18:53:24;;;;;;;;;;;;;;;-4.11;100.00;94569.84;10451183;28;1981;-66
2024/01/14 18:58:27;;;;;;;;;;;;;;;-3.75;100.00;94567.56;10450159;28;1502;-67
2024/01/14 19:03:30;;;;;;;;;;;;;;;-3.49;100.00;94575.25;10447737;28;1739;-67
2024/01/14 19:08:32;;;;;;;;;;;;;;;-3.55;100.00;94558.50;10446145;28;2707;-66
2024/01/14 19:13:35;;;;;;;;;;;;;;;-3.62;100.00;94549.09;10451259;28;1945;-68
2024/01/14 19:18:38;;;;;;;;;;;;;;;-3.74;100.00;94548.19;10451576;28;1511;-67
2024/01/14 19:23:43;;;;;;;;;;;;;;;-3.83;100.00;94543.19;10444246;28;1628;-68
2024/01/14 19:28:45;;;;;;;;;;;;;;;-3.83;100.00;94532.69;10447266;28;1659;-68
2024/01/14 19:33:48;;;;;;;;;;;;;;;-3.86;100.00;94527.06;10452613;28;1985;-66
2024/01/14 19:38:51;;;;;;;;;;;;;;;-3.79;100.00;94534.88;10428864;28;2399;-67
2024/01/14 19:43:53;;;;;;;;;;;;;;;-3.94;100.00;94530.78;10421986;28;1632;-67
2024/01/14 19:48:56;;;;;;;;;;;;;;;-3.95;100.00;94533.59;10431932;28;2648;-67
2024/01/14 19:54:03;;;;;;;;;;;;;;;-3.86;100.00;94521.81;10454156;28;1914;-68
2024/01/14 19:59:06;;;;;;;;;;;;;;;-3.79;100.00;94516.50;10447751;28;2731;-68
2024/01/14 20:04:08;;;;;;;;;;;;;;;-3.71;100.00;94509.16;10438979;28;2954;-67
2024/01/14 20:09:11;;;;;;;;;;;;;;;-3.53;100.00;94500.50;10433113;28;2899;-68
2024/01/14 20:14:14;;;;;;;;;;;;;;;-3.49;100.00;94493.00;10425643;28;3076;-67
2024/01/14 20:19:17;;;;;;;;;;;;;;;-3.54;100.00;94485.75;10439311;28;2993;-69
2024/01/14 20:24:20;;;;;;;;;;;;;;;-3.44;100.00;94483.41;10443517;28;2958;-67
2024/01/14 20:29:23;;;;;;;;;;;;;;;-3.37;100.00;94468.41;10445673;28;2973;-66
2024/01/14 20:34:26;;;;;;;;;;;;;;;-3.51;100.00;94464.28;10439617;28;2980;-69
2024/01/14 20:39:31;;;;;;;;;;;;;;;-3.73;100.00;94461.31;10443055;28;3050;-67
2024/01/14 20:44:34;;;;;;;;;;;;;;;-3.87;100.00;94457.19;10445794;28;2914;-69
2024/01/14 20:49:39;;;;;;;;;;;;;;;-4.04;100.00;94451.69;10446825;28;3219;-71
2024/01/14 20:54:42;;;;;;;;;;;;;;;-4.15;100.00;94455.00;10445553;28;2873;-69
2024/01/14 20:59:49;;;;;;;;;;;;;;;-4.23;100.00;94457.91;10442581;28;2947;-68
2024/01/14 21:04:56;;;;;;;;;;;;;;;-4.23;100.00;94458.72;10441772;28;3046;-72
2024/01/14 21:10:00;;;;;;;;;;;;;;;-4.21;100.00;94453.25;10441407;28;3004;-70
2024/01/14 21:15:03;;;;;;;;;;;;;;;-3.94;100.00;94449.38;10438466;28;2890;-70
2024/01/14 21:20:06;;;;;;;;;;;;;;;-3.72;100.00;94441.09;10439716;28;2891;-67
2024/01/14 21:25:09;;;;;;;;;;;;;;;-3.49;100.00;94432.59;10436798;28;2899;-67
2024/01/14 21:30:11;;;;;;;;;;;;;;;-3.40;100.00;94421.53;10438260;28;2850;-67
2024/01/14 21:35:15;;;;;;;;;;;;;;;-3.23;100.00;94410.44;10421534;28;2881;-68
2024/01/14 21:40:17;;;;;;;;;;;;;;;-3.05;100.00;94408.59;10444884;28;3155;-66
2024/01/14 21:45:20;;;;;;;;;;;;;;;-2.97;100.00;94410.09;10443243;28;3037;-67
2024/01/14 21:50:23;;;;;;;;;;;;;;;-2.94;100.00;94409.63;10436874;28;2998;-66
2024/01/14 21:55:25;;;;;;;;;;;;;;;-3.01;100.00;94399.22;10442262;28;2978;-67
2024/01/14 22:00:28;;;;;;;;;;;;;;;-3.23;100.00;94394.69;10441576;28;3033;-68
2024/01/14 22:05:30;;;;;;;;;;;;;;;-3.41;100.00;94395.50;10441578;28;3131;-66
2024/01/14 22:10:33;;;;;;;;;;;;;;;-3.51;100.00;94397.81;10435538;28;2922;-66
2024/01/14 22:15:35;;;;;;;;;;;;;;;-3.56;100.00;94401.94;10439404;28;2933;-67
2024/01/14 22:20:38;;;;;;;;;;;;;;;-3.57;100.00;94389.00;10436498;28;3016;-66
2024/01/14 22:25:40;;;;;;;;;;;;;;;-3.53;100.00;94384.91;10440570;28;3002;-67
2024/01/14 22:30:43;;;;;;;;;;;;;;;-3.42;100.00;94381.56;10434554;28;3140;-67
2024/01/14 22:35:45;;;;;;;;;;;;;;;-3.16;100.00;94385.69;10441385;28;2904;-67
2024/01/14 22:40:48;;;;;;;;;;;;;;;-2.86;100.00;94379.59;10437597;28;2989;-67
2024/01/14 22:45:50;;;;;;;;;;;;;;;-2.77;100.00;94373.00;10431870;28;3060;-67
2024/01/14 22:50:53;;;;;;;;;;;;;;;-2.57;100.00;94367.44;10433340;28;2949;-67
2024/01/14 22:55:56;;;;;;;;;;;;;;;-2.46;100.00;94371.91;10440083;28;2948;-65
2024/01/14 23:00:58;;;;;;;;;;;;;;;-2.30;100.00;94365.16;10438334;28;2994;-67
2024/01/14 23:06:01;;;;;;;;;;;;;;;-2.41;100.00;94369.41;10442584;28;2996;-67
2024/01/14 23:11:05;;;;;;;;;;;;;;;-2.60;100.00;94373.16;10443028;28;3009;-66
2024/01/14 23:16:08;;;;;;;;;;;;;;;-2.68;100.00;94378.72;10433395;28;2881;-68
2024/01/14 23:21:10;;;;;;;;;;;;;;;-2.74;100.00;94373.34;10439969;28;2964;-66
2024/01/14 23:26:13;;;;;;;;;;;;;;;-2.47;100.00;94379.00;10430714;28;3087;-67
2024/01/14 23:31:15;;;;;;;;;;;;;;;-2.44;100.00;94369.84;10435671;28;3000;-67
2024/01/14 23:36:18;;;;;;;;;;;;;;;-1.91;100.00;94371.56;10433288;28;2994;-67
2024/01/14 23:41:21;;;;;;;;;;;;;;;-1.64;100.00;94362.16;10435816;28;3095;-67
2024/01/14 23:46:23;;;;;;;;;;;;;;;-1.39;100.00;94366.34;10435398;28;2938;-66
2024/01/14 23:51:28;;;;;;;;;;;;;;;-1.26;100.00;94375.84;10437218;28;3036;-66
2024/01/14 23:56:30;;;;;;;;;;;;;;;-1.07;100.00;94376.47;10435093;28;2902;-69
